Mc Clellan-Palomar Airport
KCRQ : now visible

Airfield :











YOU CAN JOIN US ON...

 
LOGIN :

Register | Disclaimer

   EN    FR    IT 

 









Legend :    VFR   Marginal VFR   IFR   Intensive IFR   Very Intensive IFR
Visi :
Ceiling :
>= 8 km
>= 3000ft
5 to 8 km
1000 to 3000 ft
1500m to 5 km
500 to 1000 ft
800 to 1500m
200 to 500 ft
< 800m
< 200 ft
Symbols :   Thunderstorms  Fog  Heavy snow  Heavy precipitations  Wind > 20 kt






- Airport Elevation : 331 ft


KCRQ - Mc Clellan-Palomar

CURRENT METAR :
  • 021653Z 25006KT 10SM CLR 22/16 A2994 RMK AO2 SLP135 T02170161

EXPIRED METARs :
  • 021612Z 17004KT 10SM SCT018 22/16 A2995 RMK AO2 T02170156
  • 021553Z VRB04KT 10SM OVC017 21/16 A2995 RMK AO2 SLP139 T02060156
  • 021514Z 00000KT 10SM OVC015 19/16 A2995 RMK AO2 T01940156
  • 021453Z 00000KT 10SM OVC014 19/16 A2995 RMK AO2 SLP139 T01890156 53006
  • 020253Z AUTO 27004KT 10SM CLR 19/17 A2993 RMK AO2 SLP132 T01940167 55001

TAF KCRQ
Valid from the 02 at 12:00 until the 03 at 12:00 UTC


021120Z 0212/0312 VRB04KT P6SM OVC011
FM021600 VRB04KT P6SM SCT013
FM021900 24008KT P6SM SKC
FM030200 VRB04KT P6SM SCT015
FM030500 VRB03KT P6SM OVC012
KZLA FIR / North America



MET'MAP, your aeronautical weather chart ! - Copyright ORBIFLY December 2007 - Disclaimer

ORBIFLY MET'MAP TEAM :

Programming & Development : Alexandra Zaïnal
Original concept : Baudouin d'Aumeries
Technical & hardware support : Manuel Goepfert
Assistance : Marc-Olivier Méhu




SOURCES & CREDITS :

   NOAA       Earth
Advisory